sensor_id;sensor_type;location;lat;lon;timestamp;pressure;altitude;pressure_sealevel;temperature;humidity
33625;BME280;19962;47.820;1.930;2023-02-04T00:02:22;102521.03;;;12.08;77.29
33625;BME280;19962;47.820;1.930;2023-02-04T00:04:48;102509.69;;;11.97;77.61
33625;BME280;19962;47.820;1.930;2023-02-04T00:07:14;102510.91;;;11.94;78.03
33625;BME280;19962;47.820;1.930;2023-02-04T00:09:43;102511.34;;;12.12;77.69
33625;BME280;19962;47.820;1.930;2023-02-04T00:12:13;102511.16;;;12.14;77.23
33625;BME280;19962;47.820;1.930;2023-02-04T00:14:39;102512.69;;;12.02;77.51
33625;BME280;19962;47.820;1.930;2023-02-04T00:17:05;102513.75;;;12.01;77.70
33625;BME280;19962;47.820;1.930;2023-02-04T00:19:36;102511.94;;;12.08;77.44
33625;BME280;19962;47.820;1.930;2023-02-04T00:22:03;102500.63;;;12.03;77.77
33625;BME280;19962;47.820;1.930;2023-02-04T00:24:29;102494.94;;;12.04;77.74
33625;BME280;19962;47.820;1.930;2023-02-04T00:26:56;102491.19;;;12.05;78.04
33625;BME280;19962;47.820;1.930;2023-02-04T00:29:22;102497.53;;;12.06;77.66
33625;BME280;19962;47.820;1.930;2023-02-04T00:31:48;102496.75;;;12.12;77.75
33625;BME280;19962;47.820;1.930;2023-02-04T00:34:14;102497.41;;;12.14;77.47
33625;BME280;19962;47.820;1.930;2023-02-04T00:36:40;102496.34;;;12.15;77.59
33625;BME280;19962;47.820;1.930;2023-02-04T00:39:06;102499.56;;;12.18;77.56
33625;BME280;19962;47.820;1.930;2023-02-04T00:41:32;102497.88;;;12.17;77.45
33625;BME280;19962;47.820;1.930;2023-02-04T00:43:58;102502.63;;;12.23;77.22
33625;BME280;19962;47.820;1.930;2023-02-04T00:46:24;102498.06;;;12.16;77.64
33625;BME280;19962;47.820;1.930;2023-02-04T00:48:50;102501.78;;;12.08;78.31
33625;BME280;19962;47.820;1.930;2023-02-04T00:51:16;102490.31;;;12.05;78.22
33625;BME280;19962;47.820;1.930;2023-02-04T00:53:43;102487.03;;;12.16;78.30
33625;BME280;19962;47.820;1.930;2023-02-04T00:56:09;102497.03;;;12.17;77.77
33625;BME280;19962;47.820;1.930;2023-02-04T00:58:35;102483.66;;;12.14;78.01
33625;BME280;19962;47.820;1.930;2023-02-04T01:01:01;102490.78;;;12.08;78.54
33625;BME280;19962;47.820;1.930;2023-02-04T01:03:27;102488.72;;;11.96;79.03
33625;BME280;19962;47.820;1.930;2023-02-04T01:05:53;102485.00;;;12.03;78.58
33625;BME280;19962;47.820;1.930;2023-02-04T01:08:19;102497.44;;;11.99;78.85
33625;BME280;19962;47.820;1.930;2023-02-04T01:10:45;102488.19;;;11.86;79.67
33625;BME280;19962;47.820;1.930;2023-02-04T01:13:12;102486.63;;;11.98;79.75
33625;BME280;19962;47.820;1.930;2023-02-04T01:15:38;102489.94;;;12.08;79.17
33625;BME280;19962;47.820;1.930;2023-02-04T01:18:04;102486.13;;;12.09;78.89
33625;BME280;19962;47.820;1.930;2023-02-04T01:20:30;102476.63;;;12.11;79.00
33625;BME280;19962;47.820;1.930;2023-02-04T01:22:56;102488.28;;;12.13;78.83
33625;BME280;19962;47.820;1.930;2023-02-04T01:25:22;102482.72;;;12.07;79.06
33625;BME280;19962;47.820;1.930;2023-02-04T01:27:48;102479.50;;;12.03;79.19
33625;BME280;19962;47.820;1.930;2023-02-04T01:30:15;102475.88;;;12.03;79.24
33625;BME280;19962;47.820;1.930;2023-02-04T01:32:41;102485.28;;;12.08;79.45
33625;BME280;19962;47.820;1.930;2023-02-04T01:35:08;102483.94;;;12.04;79.23
33625;BME280;19962;47.820;1.930;2023-02-04T01:37:34;102472.75;;;12.06;79.32
33625;BME280;19962;47.820;1.930;2023-02-04T01:40:00;102483.13;;;12.04;79.09
33625;BME280;19962;47.820;1.930;2023-02-04T01:42:26;102485.00;;;12.03;79.56
33625;BME280;19962;47.820;1.930;2023-02-04T01:44:52;102489.25;;;12.06;79.57
33625;BME280;19962;47.820;1.930;2023-02-04T01:47:19;102479.22;;;11.98;80.05
33625;BME280;19962;47.820;1.930;2023-02-04T01:49:48;102475.63;;;11.98;80.13
33625;BME280;19962;47.820;1.930;2023-02-04T01:52:17;102479.03;;;12.00;80.21
33625;BME280;19962;47.820;1.930;2023-02-04T01:54:43;102487.28;;;12.00;80.18
33625;BME280;19962;47.820;1.930;2023-02-04T01:57:14;102481.91;;;11.92;80.99
33625;BME280;19962;47.820;1.930;2023-02-04T01:59:43;102480.47;;;11.96;80.83
33625;BME280;19962;47.820;1.930;2023-02-04T02:05:08;102478.97;;;11.93;81.23
33625;BME280;19962;47.820;1.930;2023-02-04T02:07:35;102480.09;;;11.99;80.97
33625;BME280;19962;47.820;1.930;2023-02-04T02:10:03;102487.19;;;12.08;80.35
33625;BME280;19962;47.820;1.930;2023-02-04T02:12:30;102476.81;;;12.10;80.03
33625;BME280;19962;47.820;1.930;2023-02-04T02:14:56;102472.03;;;11.97;80.70
33625;BME280;19962;47.820;1.930;2023-02-04T02:17:23;102472.41;;;11.94;80.77
33625;BME280;19962;47.820;1.930;2023-02-04T02:19:50;102479.78;;;11.94;81.47
33625;BME280;19962;47.820;1.930;2023-02-04T02:22:26;102473.75;;;11.84;82.09
33625;BME280;19962;47.820;1.930;2023-02-04T02:24:53;102473.47;;;11.79;82.31
33625;BME280;19962;47.820;1.930;2023-02-04T02:27:19;102469.94;;;11.85;82.13
33625;BME280;19962;47.820;1.930;2023-02-04T02:29:46;102472.41;;;11.94;81.59
33625;BME280;19962;47.820;1.930;2023-02-04T02:32:14;102465.59;;;11.90;81.51
33625;BME280;19962;47.820;1.930;2023-02-04T02:34:41;102473.19;;;11.88;81.96
33625;BME280;19962;47.820;1.930;2023-02-04T02:37:08;102476.22;;;11.93;81.78
33625;BME280;19962;47.820;1.930;2023-02-04T02:39:36;102467.88;;;11.87;81.85
33625;BME280;19962;47.820;1.930;2023-02-04T02:42:03;102477.38;;;11.84;81.94
33625;BME280;19962;47.820;1.930;2023-02-04T02:44:30;102471.09;;;11.90;81.99
33625;BME280;19962;47.820;1.930;2023-02-04T02:46:56;102460.75;;;11.92;81.82
33625;BME280;19962;47.820;1.930;2023-02-04T02:49:23;102466.03;;;11.94;81.96
33625;BME280;19962;47.820;1.930;2023-02-04T02:51:50;102466.81;;;11.88;82.25
33625;BME280;19962;47.820;1.930;2023-02-04T02:54:28;102468.94;;;11.86;82.34
33625;BME280;19962;47.820;1.930;2023-02-04T02:56:56;102468.41;;;11.97;81.97
33625;BME280;19962;47.820;1.930;2023-02-04T02:59:24;102473.81;;;12.05;81.52
33625;BME280;19962;47.820;1.930;2023-02-04T03:02:01;102476.41;;;11.92;82.46
33625;BME280;19962;47.820;1.930;2023-02-04T03:04:30;102471.69;;;11.86;82.30
33625;BME280;19962;47.820;1.930;2023-02-04T03:06:58;102466.19;;;11.86;82.44
33625;BME280;19962;47.820;1.930;2023-02-04T03:09:26;102476.59;;;11.76;83.59
33625;BME280;19962;47.820;1.930;2023-02-04T03:11:54;102479.66;;;11.81;83.41
33625;BME280;19962;47.820;1.930;2023-02-04T03:14:20;102474.16;;;11.81;83.16
33625;BME280;19962;47.820;1.930;2023-02-04T03:16:50;102467.97;;;11.79;83.37
33625;BME280;19962;47.820;1.930;2023-02-04T03:19:16;102471.75;;;11.92;82.62
33625;BME280;19962;47.820;1.930;2023-02-04T03:21:43;102482.16;;;11.97;82.41
33625;BME280;19962;47.820;1.930;2023-02-04T03:24:10;102479.59;;;11.95;82.53
33625;BME280;19962;47.820;1.930;2023-02-04T03:26:37;102486.34;;;11.93;82.52
33625;BME280;19962;47.820;1.930;2023-02-04T03:29:07;102485.22;;;11.87;83.18
33625;BME280;19962;47.820;1.930;2023-02-04T03:31:33;102487.91;;;11.81;83.65
33625;BME280;19962;47.820;1.930;2023-02-04T03:33:59;102484.75;;;11.84;83.72
33625;BME280;19962;47.820;1.930;2023-02-04T03:36:25;102486.19;;;11.80;83.83
33625;BME280;19962;47.820;1.930;2023-02-04T03:38:51;102483.59;;;11.93;83.34
33625;BME280;19962;47.820;1.930;2023-02-04T03:41:19;102485.03;;;11.89;83.37
33625;BME280;19962;47.820;1.930;2023-02-04T03:43:45;102489.50;;;11.90;83.22
33625;BME280;19962;47.820;1.930;2023-02-04T03:46:11;102487.41;;;11.92;83.22
33625;BME280;19962;47.820;1.930;2023-02-04T03:48:37;102482.00;;;11.84;83.45
33625;BME280;19962;47.820;1.930;2023-02-04T03:51:03;102480.38;;;11.89;83.65
33625;BME280;19962;47.820;1.930;2023-02-04T03:53:29;102481.91;;;11.92;83.45
33625;BME280;19962;47.820;1.930;2023-02-04T03:55:56;102482.53;;;11.94;83.13
33625;BME280;19962;47.820;1.930;2023-02-04T03:58:22;102480.09;;;11.99;83.31
33625;BME280;19962;47.820;1.930;2023-02-04T04:00:48;102476.22;;;11.93;84.15
33625;BME280;19962;47.820;1.930;2023-02-04T04:03:14;102475.34;;;11.93;84.22
33625;BME280;19962;47.820;1.930;2023-02-04T04:05:41;102481.53;;;11.95;84.15
33625;BME280;19962;47.820;1.930;2023-02-04T04:08:07;102479.69;;;12.02;84.03
33625;BME280;19962;47.820;1.930;2023-02-04T04:10:33;102482.16;;;11.97;84.13
33625;BME280;19962;47.820;1.930;2023-02-04T04:12:59;102486.44;;;11.99;84.28
33625;BME280;19962;47.820;1.930;2023-02-04T04:15:25;102483.75;;;12.06;84.15
33625;BME280;19962;47.820;1.930;2023-02-04T04:17:51;102489.78;;;11.95;84.54
33625;BME280;19962;47.820;1.930;2023-02-04T04:20:17;102487.03;;;11.95;85.19
33625;BME280;19962;47.820;1.930;2023-02-04T04:22:43;102490.59;;;11.95;85.10
33625;BME280;19962;47.820;1.930;2023-02-04T04:25:10;102487.94;;;12.02;84.99
33625;BME280;19962;47.820;1.930;2023-02-04T04:27:36;102488.03;;;11.94;85.75
33625;BME280;19962;47.820;1.930;2023-02-04T04:30:03;102480.66;;;11.94;85.38
33625;BME280;19962;47.820;1.930;2023-02-04T04:32:29;102490.69;;;12.02;85.05
33625;BME280;19962;47.820;1.930;2023-02-04T04:34:56;102494.13;;;12.04;85.33
33625;BME280;19962;47.820;1.930;2023-02-04T04:37:22;102489.97;;;11.93;86.09
33625;BME280;19962;47.820;1.930;2023-02-04T04:39:48;102492.72;;;11.93;86.21
33625;BME280;19962;47.820;1.930;2023-02-04T04:42:14;102500.00;;;12.01;85.68
33625;BME280;19962;47.820;1.930;2023-02-04T04:44:41;102498.31;;;12.00;85.69
33625;BME280;19962;47.820;1.930;2023-02-04T04:47:07;102506.81;;;12.05;85.32
33625;BME280;19962;47.820;1.930;2023-02-04T04:49:33;102511.88;;;12.01;85.65
33625;BME280;19962;47.820;1.930;2023-02-04T04:51:59;102510.66;;;11.89;86.51
33625;BME280;19962;47.820;1.930;2023-02-04T04:54:25;102507.72;;;11.91;86.91
33625;BME280;19962;47.820;1.930;2023-02-04T04:56:51;102509.59;;;11.90;87.22
33625;BME280;19962;47.820;1.930;2023-02-04T04:59:17;102510.81;;;11.88;87.06
33625;BME280;19962;47.820;1.930;2023-02-04T05:01:43;102510.47;;;11.91;87.10
33625;BME280;19962;47.820;1.930;2023-02-04T05:04:09;102510.81;;;11.88;87.17
33625;BME280;19962;47.820;1.930;2023-02-04T05:06:35;102503.00;;;11.70;88.36
33625;BME280;19962;47.820;1.930;2023-02-04T05:09:01;102507.72;;;11.76;88.25
33625;BME280;19962;47.820;1.930;2023-02-04T05:11:27;102506.75;;;11.84;88.01
33625;BME280;19962;47.820;1.930;2023-02-04T05:13:54;102508.19;;;11.80;88.50
33625;BME280;19962;47.820;1.930;2023-02-04T05:16:20;102507.91;;;11.75;89.27
33625;BME280;19962;47.820;1.930;2023-02-04T05:18:46;102503.34;;;11.82;88.76
33625;BME280;19962;47.820;1.930;2023-02-04T05:21:12;102498.22;;;11.79;88.86
33625;BME280;19962;47.820;1.930;2023-02-04T05:23:38;102503.38;;;11.67;89.91
33625;BME280;19962;47.820;1.930;2023-02-04T05:26:04;102507.63;;;11.70;89.78
33625;BME280;19962;47.820;1.930;2023-02-04T05:28:30;102509.91;;;11.81;89.35
33625;BME280;19962;47.820;1.930;2023-02-04T05:30:56;102508.75;;;11.90;89.16
33625;BME280;19962;47.820;1.930;2023-02-04T05:33:22;102507.16;;;11.81;89.16
33625;BME280;19962;47.820;1.930;2023-02-04T05:35:48;102499.38;;;11.84;88.77
33625;BME280;19962;47.820;1.930;2023-02-04T05:38:14;102504.41;;;11.81;89.17
33625;BME280;19962;47.820;1.930;2023-02-04T05:40:41;102501.66;;;11.66;90.59
33625;BME280;19962;47.820;1.930;2023-02-04T05:43:07;102507.06;;;11.74;89.80
33625;BME280;19962;47.820;1.930;2023-02-04T05:45:33;102504.31;;;11.74;89.99
33625;BME280;19962;47.820;1.930;2023-02-04T05:47:59;102512.34;;;11.76;90.11
33625;BME280;19962;47.820;1.930;2023-02-04T05:50:25;102511.97;;;11.79;90.21
33625;BME280;19962;47.820;1.930;2023-02-04T05:52:51;102515.88;;;11.84;90.04
33625;BME280;19962;47.820;1.930;2023-02-04T05:55:17;102511.59;;;11.82;89.71
33625;BME280;19962;47.820;1.930;2023-02-04T05:57:43;102515.28;;;11.89;89.42
33625;BME280;19962;47.820;1.930;2023-02-04T06:00:11;102514.25;;;11.90;89.25
33625;BME280;19962;47.820;1.930;2023-02-04T06:02:37;102517.28;;;11.95;88.88
33625;BME280;19962;47.820;1.930;2023-02-04T06:05:04;102512.81;;;11.94;88.45
33625;BME280;19962;47.820;1.930;2023-02-04T06:07:30;102514.63;;;11.87;89.17
33625;BME280;19962;47.820;1.930;2023-02-04T06:09:56;102511.19;;;11.85;89.49
33625;BME280;19962;47.820;1.930;2023-02-04T06:12:22;102512.84;;;11.79;90.34
33625;BME280;19962;47.820;1.930;2023-02-04T06:14:48;102521.38;;;11.84;90.18
33625;BME280;19962;47.820;1.930;2023-02-04T06:17:14;102516.84;;;11.77;90.78
33625;BME280;19962;47.820;1.930;2023-02-04T06:19:40;102525.34;;;11.82;90.22
33625;BME280;19962;47.820;1.930;2023-02-04T06:22:06;102517.19;;;11.74;90.73
33625;BME280;19962;47.820;1.930;2023-02-04T06:24:32;102525.81;;;11.85;89.98
33625;BME280;19962;47.820;1.930;2023-02-04T06:26:58;102524.78;;;11.86;90.23
33625;BME280;19962;47.820;1.930;2023-02-04T06:29:24;102521.38;;;11.84;90.18
33625;BME280;19962;47.820;1.930;2023-02-04T06:31:51;102524.31;;;11.83;90.04
33625;BME280;19962;47.820;1.930;2023-02-04T06:34:17;102526.00;;;11.84;89.98
33625;BME280;19962;47.820;1.930;2023-02-04T06:36:43;102525.00;;;11.70;90.99
33625;BME280;19962;47.820;1.930;2023-02-04T06:39:09;102533.97;;;11.79;90.72
33625;BME280;19962;47.820;1.930;2023-02-04T06:41:35;102525.00;;;11.70;91.66
33625;BME280;19962;47.820;1.930;2023-02-04T06:44:01;102530.41;;;11.64;92.24
33625;BME280;19962;47.820;1.930;2023-02-04T06:46:27;102530.31;;;11.72;91.67
33625;BME280;19962;47.820;1.930;2023-02-04T06:48:53;102528.03;;;11.75;91.53
33625;BME280;19962;47.820;1.930;2023-02-04T06:51:19;102526.78;;;11.78;91.61
33625;BME280;19962;47.820;1.930;2023-02-04T06:53:45;102539.38;;;11.72;91.74
33625;BME280;19962;47.820;1.930;2023-02-04T06:56:12;102540.16;;;11.66;92.12
33625;BME280;19962;47.820;1.930;2023-02-04T06:58:38;102535.41;;;11.75;91.55
33625;BME280;19962;47.820;1.930;2023-02-04T07:01:04;102537.41;;;11.81;91.11
33625;BME280;19962;47.820;1.930;2023-02-04T07:03:31;102539.09;;;11.82;90.97
33625;BME280;19962;47.820;1.930;2023-02-04T07:05:57;102544.44;;;11.83;91.04
33625;BME280;19962;47.820;1.930;2023-02-04T07:08:23;102541.09;;;11.88;90.65
33625;BME280;19962;47.820;1.930;2023-02-04T07:10:49;102541.38;;;11.78;91.15
33625;BME280;19962;47.820;1.930;2023-02-04T07:13:15;102544.34;;;11.77;91.46
33625;BME280;19962;47.820;1.930;2023-02-04T07:15:42;102543.56;;;11.83;91.10
33625;BME280;19962;47.820;1.930;2023-02-04T07:18:08;102540.44;;;11.86;90.77
33625;BME280;19962;47.820;1.930;2023-02-04T07:20:34;102543.84;;;11.88;90.57
33625;BME280;19962;47.820;1.930;2023-02-04T07:23:00;102538.94;;;11.83;90.80
33625;BME280;19962;47.820;1.930;2023-02-04T07:25:26;102544.97;;;11.79;91.02
33625;BME280;19962;47.820;1.930;2023-02-04T07:27:52;102544.22;;;11.85;91.02
33625;BME280;19962;47.820;1.930;2023-02-04T07:30:18;102549.25;;;11.81;90.83
33625;BME280;19962;47.820;1.930;2023-02-04T07:32:44;102552.19;;;11.80;91.09
33625;BME280;19962;47.820;1.930;2023-02-04T07:35:10;102550.94;;;11.82;91.07
33625;BME280;19962;47.820;1.930;2023-02-04T07:37:37;102561.56;;;11.71;92.06
33625;BME280;19962;47.820;1.930;2023-02-04T07:40:03;102568.13;;;11.70;92.50
33625;BME280;19962;47.820;1.930;2023-02-04T07:42:30;102570.31;;;11.74;92.23
33625;BME280;19962;47.820;1.930;2023-02-04T07:44:56;102571.72;;;11.85;91.83
33625;BME280;19962;47.820;1.930;2023-02-04T07:47:22;102565.84;;;11.88;91.38
33625;BME280;19962;47.820;1.930;2023-02-04T07:49:48;102567.94;;;11.86;91.50
33625;BME280;19962;47.820;1.930;2023-02-04T07:52:14;102572.56;;;11.71;93.25
33625;BME280;19962;47.820;1.930;2023-02-04T07:54:40;102578.66;;;11.81;92.97
33625;BME280;19962;47.820;1.930;2023-02-04T07:57:06;102571.44;;;11.65;93.52
33625;BME280;19962;47.820;1.930;2023-02-04T07:59:32;102585.09;;;11.73;93.38
33625;BME280;19962;47.820;1.930;2023-02-04T08:01:58;102582.16;;;11.75;93.03
33625;BME280;19962;47.820;1.930;2023-02-04T08:04:26;102594.13;;;11.82;92.87
33625;BME280;19962;47.820;1.930;2023-02-04T08:06:53;102589.94;;;11.86;92.71
33625;BME280;19962;47.820;1.930;2023-02-04T08:09:19;102598.38;;;11.84;92.74
33625;BME280;19962;47.820;1.930;2023-02-04T08:11:45;102598.09;;;11.79;92.97
33625;BME280;19962;47.820;1.930;2023-02-04T08:14:11;102596.78;;;11.90;92.19
33625;BME280;19962;47.820;1.930;2023-02-04T08:16:38;102597.44;;;11.92;92.01
33625;BME280;19962;47.820;1.930;2023-02-04T08:19:04;102598.94;;;11.94;91.95
33625;BME280;19962;47.820;1.930;2023-02-04T08:21:30;102604.25;;;11.96;91.98
33625;BME280;19962;47.820;1.930;2023-02-04T08:23:56;102599.41;;;11.69;93.48
33625;BME280;19962;47.820;1.930;2023-02-04T08:26:23;102600.47;;;11.68;94.25
33625;BME280;19962;47.820;1.930;2023-02-04T08:28:49;102597.63;;;11.90;93.06
33625;BME280;19962;47.820;1.930;2023-02-04T08:31:15;102607.28;;;12.01;92.56
33625;BME280;19962;47.820;1.930;2023-02-04T08:33:41;102602.75;;;12.08;91.89
33625;BME280;19962;47.820;1.930;2023-02-04T08:36:07;102596.19;;;12.09;91.96
33625;BME280;19962;47.820;1.930;2023-02-04T08:38:33;102592.56;;;12.08;92.11
33625;BME280;19962;47.820;1.930;2023-02-04T08:40:59;102598.75;;;12.10;92.11
33625;BME280;19962;47.820;1.930;2023-02-04T08:43:26;102602.06;;;12.06;92.22
33625;BME280;19962;47.820;1.930;2023-02-04T08:45:52;102599.50;;;12.04;92.48
33625;BME280;19962;47.820;1.930;2023-02-04T08:48:18;102599.50;;;12.04;92.69
33625;BME280;19962;47.820;1.930;2023-02-04T08:50:44;102597.91;;;12.10;92.49
33625;BME280;19962;47.820;1.930;2023-02-04T08:53:10;102606.44;;;12.15;91.90
33625;BME280;19962;47.820;1.930;2023-02-04T08:55:36;102606.25;;;12.16;92.01
33625;BME280;19962;47.820;1.930;2023-02-04T08:58:02;102605.00;;;12.19;92.24
33625;BME280;19962;47.820;1.930;2023-02-04T09:00:29;102612.44;;;12.04;92.88
33625;BME280;19962;47.820;1.930;2023-02-04T09:02:55;102619.81;;;12.03;93.18
33625;BME280;19962;47.820;1.930;2023-02-04T09:05:21;102615.28;;;12.10;93.33
33625;BME280;19962;47.820;1.930;2023-02-04T09:07:47;102619.25;;;11.93;94.39
33625;BME280;19962;47.820;1.930;2023-02-04T09:10:14;102622.66;;;12.10;93.72
33625;BME280;19962;47.820;1.930;2023-02-04T09:12:40;102620.69;;;12.04;93.58
33625;BME280;19962;47.820;1.930;2023-02-04T09:15:09;102613.44;;;12.17;93.12
33625;BME280;19962;47.820;1.930;2023-02-04T09:17:36;102622.19;;;12.06;93.81
33625;BME280;19962;47.820;1.930;2023-02-04T09:20:03;102619.53;;;12.13;93.53
33625;BME280;19962;47.820;1.930;2023-02-04T09:22:30;102618.66;;;12.12;93.47
33625;BME280;19962;47.820;1.930;2023-02-04T09:24:56;102625.91;;;11.99;94.72
33625;BME280;19962;47.820;1.930;2023-02-04T09:27:22;102621.25;;;12.14;93.80
33625;BME280;19962;47.820;1.930;2023-02-04T09:29:48;102616.59;;;12.14;93.50
33625;BME280;19962;47.820;1.930;2023-02-04T09:32:14;102618.88;;;11.96;93.97
33625;BME280;19962;47.820;1.930;2023-02-04T09:34:40;102626.00;;;11.91;94.91
33625;BME280;19962;47.820;1.930;2023-02-04T09:37:06;102619.91;;;11.81;95.17
33625;BME280;19962;47.820;1.930;2023-02-04T09:39:32;102615.53;;;12.01;94.83
33625;BME280;19962;47.820;1.930;2023-02-04T09:41:59;102619.91;;;12.10;94.28
33625;BME280;19962;47.820;1.930;2023-02-04T09:44:26;102620.66;;;12.18;93.55
33625;BME280;19962;47.820;1.930;2023-02-04T09:46:56;102615.38;;;12.17;93.35
33625;BME280;19962;47.820;1.930;2023-02-04T09:49:24;102615.19;;;12.04;94.49
33625;BME280;19962;47.820;1.930;2023-02-04T09:51:51;102627.47;;;12.22;93.84
33625;BME280;19962;47.820;1.930;2023-02-04T09:54:20;102624.63;;;12.30;93.08
33625;BME280;19962;47.820;1.930;2023-02-04T09:56:47;102628.16;;;12.39;91.98
33625;BME280;19962;47.820;1.930;2023-02-04T09:59:20;102633.41;;;12.55;91.33
33625;BME280;19962;47.820;1.930;2023-02-04T10:01:59;102633.84;;;12.08;91.85
33625;BME280;19962;47.820;1.930;2023-02-04T10:04:26;102624.34;;;12.25;92.31
33625;BME280;19962;47.820;1.930;2023-02-04T10:06:54;102627.19;;;12.46;91.25
33625;BME280;19962;47.820;1.930;2023-02-04T10:09:20;102634.72;;;12.23;92.07
33625;BME280;19962;47.820;1.930;2023-02-04T10:11:47;102623.94;;;12.43;91.42
33625;BME280;19962;47.820;1.930;2023-02-04T10:14:20;102629.94;;;12.32;89.73
33625;BME280;19962;47.820;1.930;2023-02-04T10:16:53;102637.31;;;12.46;90.14
33625;BME280;19962;47.820;1.930;2023-02-04T10:19:19;102630.59;;;12.48;90.26
33625;BME280;19962;47.820;1.930;2023-02-04T10:21:46;102630.22;;;12.51;89.82
33625;BME280;19962;47.820;1.930;2023-02-04T10:24:15;102633.16;;;12.50;90.00
33625;BME280;19962;47.820;1.930;2023-02-04T10:26:42;102638.94;;;12.55;89.48
33625;BME280;19962;47.820;1.930;2023-02-04T10:29:16;102637.88;;;12.56;88.89
33625;BME280;19962;47.820;1.930;2023-02-04T10:31:45;102629.31;;;12.30;90.33
33625;BME280;19962;47.820;1.930;2023-02-04T10:34:30;102632.19;;;12.57;89.62
33625;BME280;19962;47.820;1.930;2023-02-04T10:36:57;102638.78;;;12.77;88.50
33625;BME280;19962;47.820;1.930;2023-02-04T10:39:27;102636.72;;;12.65;88.11
33625;BME280;19962;47.820;1.930;2023-02-04T10:41:59;102644.03;;;12.72;87.77
33625;BME280;19962;47.820;1.930;2023-02-04T10:44:33;102652.63;;;12.84;86.90
33625;BME280;19962;47.820;1.930;2023-02-04T10:49:57;102644.34;;;12.48;86.54
33625;BME280;19962;47.820;1.930;2023-02-04T10:52:40;102637.88;;;12.56;86.33
33625;BME280;19962;47.820;1.930;2023-02-04T10:55:16;102638.13;;;12.75;85.67
33625;BME280;19962;47.820;1.930;2023-02-04T10:57:45;102641.13;;;12.80;85.41
33625;BME280;19962;47.820;1.930;2023-02-04T11:00:21;102636.34;;;12.68;84.94
33625;BME280;19962;47.820;1.930;2023-02-04T11:03:14;102640.88;;;12.75;84.95
33625;BME280;19962;47.820;1.930;2023-02-04T11:05:41;102632.03;;;12.80;84.44
33625;BME280;19962;47.820;1.930;2023-02-04T11:08:26;102634.94;;;12.93;83.88
33625;BME280;19962;47.820;1.930;2023-02-04T11:16:28;102637.66;;;12.72;82.22
33625;BME280;19962;47.820;1.930;2023-02-04T11:19:08;102626.63;;;12.72;82.08
33625;BME280;19962;47.820;1.930;2023-02-04T11:26:48;102623.66;;;12.88;82.14
33625;BME280;19962;47.820;1.930;2023-02-04T11:29:30;102629.13;;;13.02;81.35
33625;BME280;19962;47.820;1.930;2023-02-04T11:32:29;102627.47;;;13.08;81.46
33625;BME280;19962;47.820;1.930;2023-02-04T11:37:41;102623.81;;;13.22;80.68
33625;BME280;19962;47.820;1.930;2023-02-04T11:40:34;102623.41;;;13.04;79.31
33625;BME280;19962;47.820;1.930;2023-02-04T11:43:23;102611.75;;;13.02;79.76
33625;BME280;19962;47.820;1.930;2023-02-04T11:46:00;102620.84;;;13.02;79.77
33625;BME280;19962;47.820;1.930;2023-02-04T11:48:27;102625.41;;;13.10;79.79
33625;BME280;19962;47.820;1.930;2023-02-04T11:50:58;102620.41;;;13.20;79.80
33625;BME280;19962;47.820;1.930;2023-02-04T11:53:29;102617.72;;;13.05;79.37
33625;BME280;19962;47.820;1.930;2023-02-04T11:55:56;102623.69;;;13.09;79.55
33625;BME280;19962;47.820;1.930;2023-02-04T11:58:22;102620.59;;;12.97;80.20
33625;BME280;19962;47.820;1.930;2023-02-04T12:00:51;102616.00;;;13.04;80.40
33625;BME280;19962;47.820;1.930;2023-02-04T12:03:29;102613.59;;;13.16;79.27
33625;BME280;19962;47.820;1.930;2023-02-04T12:05:57;102619.72;;;13.18;79.50
33625;BME280;19962;47.820;1.930;2023-02-04T12:13:52;102617.84;;;13.39;78.80
33625;BME280;19962;47.820;1.930;2023-02-04T12:16:18;102619.41;;;13.48;78.08
33625;BME280;19962;47.820;1.930;2023-02-04T12:18:44;102618.97;;;13.51;77.54
33625;BME280;19962;47.820;1.930;2023-02-04T12:21:11;102620.09;;;13.57;77.38
33625;BME280;19962;47.820;1.930;2023-02-04T12:23:39;102610.34;;;13.61;76.85
33625;BME280;19962;47.820;1.930;2023-02-04T12:26:07;102615.91;;;13.40;77.03
33625;BME280;19962;47.820;1.930;2023-02-04T12:28:34;102618.97;;;13.51;76.81
33625;BME280;19962;47.820;1.930;2023-02-04T12:31:00;102618.03;;;13.38;76.67
33625;BME280;19962;47.820;1.930;2023-02-04T12:33:27;102616.25;;;13.58;76.21
33625;BME280;19962;47.820;1.930;2023-02-04T12:35:53;102619.50;;;13.61;75.31
33625;BME280;19962;47.820;1.930;2023-02-04T12:38:19;102615.72;;;13.69;75.14
33625;BME280;19962;47.820;1.930;2023-02-04T12:40:45;102611.56;;;13.79;74.98
33625;BME280;19962;47.820;1.930;2023-02-04T12:43:11;102614.91;;;13.75;74.04
33625;BME280;19962;47.820;1.930;2023-02-04T12:45:38;102606.34;;;13.63;73.09
33625;BME280;19962;47.820;1.930;2023-02-04T12:48:06;102610.44;;;13.46;73.01
33625;BME280;19962;47.820;1.930;2023-02-04T12:50:32;102597.34;;;13.48;72.50
33625;BME280;19962;47.820;1.930;2023-02-04T12:52:59;102600.38;;;13.60;72.44
33625;BME280;19962;47.820;1.930;2023-02-04T12:55:26;102601.47;;;13.65;71.86
33625;BME280;19962;47.820;1.930;2023-02-04T12:57:53;102593.72;;;13.75;71.94
33625;BME280;19962;47.820;1.930;2023-02-04T13:00:21;102602.63;;;13.77;71.60
33625;BME280;19962;47.820;1.930;2023-02-04T13:02:48;102596.03;;;13.78;71.97
33625;BME280;19962;47.820;1.930;2023-02-04T13:05:15;102598.41;;;13.81;71.06
33625;BME280;19962;47.820;1.930;2023-02-04T13:07:42;102595.81;;;13.73;71.44
33625;BME280;19962;47.820;1.930;2023-02-04T13:10:12;102588.19;;;13.75;70.08
33625;BME280;19962;47.820;1.930;2023-02-04T13:12:39;102595.31;;;13.63;70.44
33625;BME280;19962;47.820;1.930;2023-02-04T13:15:05;102603.41;;;13.65;70.13
33625;BME280;19962;47.820;1.930;2023-02-04T13:17:32;102601.28;;;13.67;69.48